createdAt,value
2018-04-20T00:01:42.269Z,13.00
2018-04-20T00:04:10.965Z,13.00
2018-04-20T00:06:39.660Z,12.90
2018-04-20T00:09:08.461Z,12.90
2018-04-20T00:11:36.888Z,12.70
2018-04-20T00:14:06.205Z,12.50
2018-04-20T00:16:35.413Z,12.40
2018-04-20T00:19:03.869Z,12.40
2018-04-20T00:21:32.296Z,12.40
2018-04-20T00:24:01.443Z,12.10
2018-04-20T00:26:29.908Z,12.10
2018-04-20T00:28:58.327Z,12.10
2018-04-20T00:31:27.037Z,12.00
2018-04-20T00:33:55.464Z,12.00
2018-04-20T00:36:24.872Z,11.90
2018-04-20T00:38:53.331Z,11.90
2018-04-20T00:41:21.760Z,11.80
2018-04-20T00:43:50.191Z,11.80
2018-04-20T00:46:18.392Z,11.70
2018-04-20T00:48:47.887Z,11.70
2018-04-20T00:51:16.579Z,11.70
2018-04-20T00:53:56.706Z,11.60
2018-04-20T00:56:25.325Z,11.60
2018-04-20T00:58:53.761Z,11.60
2018-04-20T01:01:22.209Z,11.60
2018-04-20T01:03:51.668Z,11.50
2018-04-20T01:06:20.865Z,11.50
2018-04-20T01:08:50.067Z,11.40
2018-04-20T01:11:18.552Z,11.40
2018-04-20T01:13:47.788Z,11.40
2018-04-20T01:16:16.538Z,11.40
2018-04-20T01:18:45.018Z,11.40
2018-04-20T01:21:14.344Z,11.40
2018-04-20T01:23:42.933Z,11.40
2018-04-20T01:26:11.373Z,11.30
2018-04-20T01:28:39.825Z,11.30
2018-04-20T01:31:08.533Z,11.20
2018-04-20T01:33:37.727Z,11.00
2018-04-20T01:36:07.078Z,11.00
2018-04-20T01:38:35.524Z,11.00
2018-04-20T01:41:04.004Z,11.00
2018-04-20T01:43:33.315Z,10.90
2018-04-20T01:46:04.336Z,10.80
2018-04-20T01:48:32.804Z,10.80
2018-04-20T01:51:01.483Z,10.80
2018-04-20T01:53:30.696Z,10.70
2018-04-20T01:55:59.383Z,10.60
2018-04-20T01:58:28.636Z,10.60
2018-04-20T02:00:57.405Z,10.60
2018-04-20T02:03:26.857Z,10.50
2018-04-20T02:05:55.449Z,10.50
2018-04-20T02:08:24.684Z,10.40
2018-04-20T02:10:53.245Z,10.40
2018-04-20T02:13:21.752Z,10.40
2018-04-20T02:15:51.221Z,10.40
2018-04-20T02:18:19.911Z,10.40
2018-04-20T02:20:48.617Z,10.40
2018-04-20T02:23:17.149Z,10.40
2018-04-20T02:25:45.677Z,10.50
2018-04-20T02:28:15.153Z,10.50
2018-04-20T02:30:44.365Z,10.40
2018-04-20T02:33:12.816Z,10.40
2018-04-20T02:35:41.314Z,10.40
2018-04-20T02:38:09.797Z,10.30
2018-04-20T02:40:39.175Z,10.30
2018-04-20T02:43:07.626Z,10.30
2018-04-20T02:45:36.268Z,10.30
2018-04-20T02:48:04.853Z,10.30
2018-04-20T02:50:33.837Z,10.30
2018-04-20T02:53:02.338Z,10.30
2018-04-20T02:55:31.173Z,10.20
2018-04-20T02:58:00.604Z,10.20
2018-04-20T03:00:29.809Z,10.10
2018-04-20T03:02:58.504Z,10.10
2018-04-20T03:05:27.205Z,10.10
2018-04-20T03:07:55.929Z,10.20
2018-04-20T03:10:24.630Z,10.20
2018-04-20T03:12:53.329Z,10.10
2018-04-20T03:15:22.534Z,10.00
2018-04-20T03:17:51.234Z,10.00
2018-04-20T03:20:19.665Z,10.00
2018-04-20T03:22:49.104Z,9.90
2018-04-20T03:25:17.712Z,9.80
2018-04-20T03:27:46.428Z,9.80
2018-04-20T03:30:14.870Z,9.70
2018-04-20T03:32:43.309Z,9.60
2018-04-20T03:35:12.572Z,9.40
2018-04-20T03:37:41.272Z,9.40
2018-04-20T03:40:09.703Z,9.50
2018-04-20T03:42:38.133Z,9.50
2018-04-20T03:45:06.606Z,9.40
2018-04-20T03:47:35.528Z,9.40
2018-04-20T03:50:05.663Z,9.40
2018-04-20T03:52:34.367Z,9.40
2018-04-20T03:55:03.017Z,9.40
2018-04-20T03:57:31.629Z,9.20
2018-04-20T04:00:01.113Z,9.20
2018-04-20T04:02:29.816Z,9.20
2018-04-20T04:04:58.284Z,9.20
2018-04-20T04:07:26.777Z,9.20
2018-04-20T04:09:55.476Z,9.20
2018-04-20T04:12:23.901Z,9.20
2018-04-20T04:14:52.329Z,9.20
2018-04-20T04:17:31.872Z,9.20
2018-04-20T04:20:11.345Z,9.20
2018-04-20T04:22:50.953Z,9.20
2018-04-20T04:25:30.505Z,9.20
2018-04-20T04:28:12.445Z,9.20
2018-04-20T04:30:41.137Z,9.20
2018-04-20T04:33:09.749Z,9.20
2018-04-20T04:35:38.176Z,9.20
2018-04-20T04:38:06.889Z,9.20
2018-04-20T04:40:36.072Z,9.20
2018-04-20T04:43:04.432Z,9.20
2018-04-20T04:45:32.872Z,9.20
2018-04-20T04:48:01.481Z,9.20
2018-04-20T04:50:30.295Z,9.20
2018-04-20T04:52:58.996Z,9.20
2018-04-20T04:55:28.383Z,9.30
2018-04-20T04:57:57.586Z,9.40
2018-04-20T05:00:26.256Z,9.40
2018-04-20T05:02:54.965Z,9.40
2018-04-20T05:05:23.053Z,9.40
2018-04-20T05:07:51.787Z,9.50
2018-04-20T05:10:20.979Z,9.50
2018-04-20T05:12:49.420Z,9.60
2018-04-20T05:15:17.870Z,9.70
2018-04-20T05:17:46.292Z,9.70
2018-04-20T05:20:14.997Z,9.80
2018-04-20T05:22:43.657Z,9.80
2018-04-20T05:25:12.379Z,9.90
2018-04-20T05:27:40.914Z,9.90
2018-04-20T05:30:09.455Z,10.20
2018-04-20T05:32:38.661Z,10.70
2018-04-20T05:35:08.068Z,10.90
2018-04-20T05:37:37.269Z,11.10
2018-04-20T05:40:06.772Z,11.20
2018-04-20T05:42:34.977Z,11.20
2018-04-20T05:45:03.318Z,11.30
2018-04-20T05:47:32.271Z,11.50
2018-04-20T05:50:00.713Z,11.50
2018-04-20T05:52:29.765Z,11.60
2018-04-20T05:54:58.067Z,11.60
2018-04-20T05:57:26.594Z,11.80
2018-04-20T05:59:55.573Z,11.90
2018-04-20T06:02:24.045Z,11.90
2018-04-20T06:04:52.236Z,12.10
2018-04-20T06:07:20.744Z,12.20
2018-04-20T06:09:49.716Z,12.50
2018-04-20T06:12:17.920Z,12.60
2018-04-20T06:14:46.898Z,12.70
2018-04-20T06:17:15.109Z,12.70
2018-04-20T06:19:43.419Z,12.90
2018-04-20T06:22:11.885Z,12.90
2018-04-20T06:24:40.362Z,13.00
2018-04-20T06:27:08.572Z,13.20
2018-04-20T06:29:37.301Z,13.30
2018-04-20T06:32:06.875Z,13.60
2018-04-20T06:34:35.317Z,13.60
2018-04-20T06:37:03.825Z,13.70
2018-04-20T06:39:32.261Z,13.90
2018-04-20T06:42:00.685Z,14.10
2018-04-20T06:44:29.404Z,14.40
2018-04-20T06:46:58.901Z,14.80
2018-04-20T06:49:28.126Z,15.20
2018-04-20T06:51:57.620Z,15.80
2018-04-20T06:54:26.096Z,15.80
2018-04-20T06:56:55.582Z,16.60
2018-04-20T06:59:24.791Z,16.70
2018-04-20T07:01:53.379Z,16.60
2018-04-20T07:04:21.829Z,16.70
2018-04-20T07:06:51.030Z,17.00
2018-04-20T07:09:20.237Z,17.30
2018-04-20T07:11:48.942Z,17.30
2018-04-20T07:14:17.704Z,17.40
2018-04-20T07:16:46.446Z,17.40
2018-04-20T07:19:14.897Z,17.30
2018-04-20T07:21:43.573Z,17.80
2018-04-20T07:24:12.273Z,18.20
2018-04-20T07:26:40.704Z,18.20
2018-04-20T07:29:09.413Z,18.30
2018-04-20T07:31:37.848Z,18.50
2018-04-20T07:34:06.297Z,19.00
2018-04-20T07:36:35.776Z,19.50
2018-04-20T07:39:03.807Z,19.50
2018-04-20T07:41:32.140Z,20.20
2018-04-20T07:44:01.751Z,20.60
2018-04-20T07:46:30.174Z,20.50
2018-04-20T07:48:58.713Z,21.10
2018-04-20T07:51:28.192Z,22.00
2018-04-20T07:53:56.900Z,22.00
2018-04-20T07:56:25.339Z,22.30
2018-04-20T07:58:54.057Z,22.60
2018-04-20T08:01:22.491Z,23.00
2018-04-20T08:03:50.932Z,22.90
2018-04-20T08:06:19.658Z,23.30
2018-04-20T08:08:48.091Z,22.90
2018-04-20T08:11:17.544Z,23.20
2018-04-20T08:13:46.030Z,23.20
2018-04-20T08:16:14.715Z,23.70
2018-04-20T08:18:43.407Z,24.00
2018-04-20T08:21:12.616Z,24.10
2018-04-20T08:23:41.177Z,24.10
2018-04-20T08:26:09.609Z,24.30
2018-04-20T08:28:38.940Z,23.80
2018-04-20T08:31:07.390Z,23.80
2018-04-20T08:33:36.849Z,23.60
2018-04-20T08:36:06.054Z,23.90
2018-04-20T08:38:34.752Z,23.80
2018-04-20T08:41:03.188Z,24.70
2018-04-20T08:43:32.034Z,24.30
2018-04-20T08:46:01.499Z,25.10
2018-04-20T08:48:30.195Z,25.00
2018-04-20T08:50:59.008Z,24.70
2018-04-20T08:53:27.442Z,24.90
2018-04-20T08:55:55.871Z,25.20
2018-04-20T08:58:25.346Z,25.90
2018-04-20T09:00:54.535Z,26.30
2018-04-20T09:03:24.240Z,26.30
2018-04-20T09:05:53.064Z,26.30
2018-04-20T09:08:21.496Z,26.50
2018-04-20T09:10:49.932Z,26.80
2018-04-20T09:13:18.378Z,27.00
2018-04-20T09:15:47.082Z,27.00
2018-04-20T09:18:15.747Z,27.20
2018-04-20T09:20:44.445Z,26.90
2018-04-20T09:23:13.189Z,27.40
2018-04-20T09:25:42.369Z,28.00
2018-04-20T09:28:10.867Z,28.00
2018-04-20T09:30:39.297Z,28.40
2018-04-20T09:33:07.752Z,29.10
2018-04-20T09:35:36.785Z,28.20
2018-04-20T09:38:05.214Z,28.60
2018-04-20T09:40:34.409Z,28.60
2018-04-20T09:43:03.098Z,28.50
2018-04-20T09:45:32.285Z,29.80
2018-04-20T09:48:01.477Z,29.30
2018-04-20T09:50:30.192Z,29.30
2018-04-20T09:52:58.619Z,29.30
2018-04-20T09:55:27.949Z,30.00
2018-04-20T09:57:57.157Z,30.20
2018-04-20T10:00:25.637Z,30.20
2018-04-20T10:02:54.287Z,30.30
2018-04-20T10:05:24.150Z,30.50
2018-04-20T10:07:52.797Z,30.50
2018-04-20T10:10:21.477Z,30.50
2018-04-20T10:12:49.959Z,31.20
2018-04-20T10:15:18.332Z,31.20
2018-04-20T10:17:47.021Z,30.50
2018-04-20T10:20:15.705Z,30.80
2018-04-20T10:22:44.252Z,31.20
2018-04-20T10:25:12.684Z,31.40
2018-04-20T10:27:41.885Z,32.40
2018-04-20T10:30:10.346Z,32.40
2018-04-20T10:32:38.777Z,32.40
2018-04-20T10:35:07.362Z,32.40
2018-04-20T10:37:35.801Z,32.70
2018-04-20T10:40:04.168Z,32.80
2018-04-20T10:42:32.650Z,32.60
2018-04-20T10:45:01.213Z,32.80
2018-04-20T10:47:30.426Z,32.80
2018-04-20T10:49:58.865Z,32.70
2018-04-20T10:52:27.297Z,33.30
2018-04-20T10:54:56.488Z,34.20
2018-04-20T10:57:24.973Z,34.10
2018-04-20T10:59:54.168Z,34.40
2018-04-20T11:02:22.677Z,34.30
2018-04-20T11:04:51.258Z,34.60
2018-04-20T11:07:19.701Z,34.90
2018-04-20T11:09:48.125Z,34.90
2018-04-20T11:12:16.594Z,34.40
2018-04-20T11:14:45.012Z,34.70
2018-04-20T11:17:13.437Z,34.90
2018-04-20T11:19:41.910Z,34.80
2018-04-20T11:22:11.105Z,35.10
2018-04-20T11:24:40.312Z,34.90
2018-04-20T11:27:08.761Z,34.90
2018-04-20T11:29:37.358Z,35.00
2018-04-20T11:32:06.845Z,35.30
2018-04-20T11:34:36.197Z,35.60
2018-04-20T11:37:04.881Z,35.60
2018-04-20T11:39:33.381Z,35.40
2018-04-20T11:42:02.245Z,34.70
2018-04-20T11:44:30.682Z,34.00
2018-04-20T11:46:59.428Z,33.40
2018-04-20T11:49:27.841Z,33.90
2018-04-20T11:51:56.605Z,34.60
2018-04-20T11:54:26.041Z,35.10
2018-04-20T11:56:54.746Z,35.00
2018-04-20T11:59:23.510Z,36.00
2018-04-20T12:01:52.721Z,36.10
2018-04-20T12:04:21.923Z,36.30
2018-04-20T12:06:50.487Z,36.30
2018-04-20T12:09:19.189Z,36.50
2018-04-20T12:11:47.913Z,37.30
2018-04-20T12:14:16.365Z,37.30
2018-04-20T12:16:45.013Z,35.80
2018-04-20T12:19:13.767Z,35.20
2018-04-20T12:21:42.985Z,35.70
2018-04-20T12:24:11.546Z,35.60
2018-04-20T12:26:40.237Z,36.40
2018-04-20T12:29:08.935Z,36.50
2018-04-20T12:31:36.700Z,36.30
2018-04-20T12:34:04.921Z,36.20
2018-04-20T12:36:33.359Z,36.80
2018-04-20T12:39:01.897Z,37.50
2018-04-20T12:41:30.741Z,37.30
2018-04-20T12:43:59.723Z,36.90
2018-04-20T12:46:28.423Z,37.30
2018-04-20T12:48:57.129Z,37.20
2018-04-20T12:51:26.881Z,37.00
2018-04-20T12:53:55.321Z,37.00
2018-04-20T12:56:23.919Z,37.30
2018-04-20T12:58:52.314Z,36.80
2018-04-20T13:01:21.776Z,37.80
2018-04-20T13:03:50.995Z,37.00
2018-04-20T13:06:19.455Z,37.00
2018-04-20T13:08:48.761Z,36.30
2018-04-20T13:11:17.656Z,36.30
2018-04-20T13:13:46.083Z,36.30
2018-04-20T13:16:14.789Z,36.20
2018-04-20T13:18:43.279Z,37.10
2018-04-20T13:21:12.912Z,37.20
2018-04-20T13:23:42.560Z,37.10
2018-04-20T13:26:10.668Z,36.90
2018-04-20T13:28:39.942Z,36.20
2018-04-20T13:31:08.380Z,36.20
2018-04-20T13:33:37.112Z,36.10
2018-04-20T13:36:06.308Z,35.60
2018-04-20T13:38:34.741Z,35.50
2018-04-20T13:41:03.427Z,35.80
2018-04-20T13:43:31.852Z,36.10
2018-04-20T13:46:00.286Z,36.20
2018-04-20T13:48:28.750Z,36.80
2018-04-20T13:50:57.537Z,36.90
2018-04-20T13:53:26.236Z,36.80
2018-04-20T13:55:55.708Z,36.60
2018-04-20T13:58:25.000Z,36.80
2018-04-20T14:00:54.198Z,36.20
2018-04-20T14:03:23.538Z,36.20
2018-04-20T14:05:52.304Z,36.20
2018-04-20T14:08:20.807Z,36.40
2018-04-20T14:10:49.253Z,36.90
2018-04-20T14:13:18.108Z,36.70
2018-04-20T14:15:46.761Z,36.50
2018-04-20T14:18:16.881Z,36.00
2018-04-20T14:20:45.909Z,35.90
2018-04-20T14:23:14.407Z,35.50
2018-04-20T14:25:43.112Z,35.20
2018-04-20T14:28:12.632Z,35.60
2018-04-20T14:30:41.325Z,35.60
2018-04-20T14:33:09.732Z,35.60
2018-04-20T14:35:38.160Z,36.10
2018-04-20T14:38:06.598Z,35.90
2018-04-20T14:40:35.320Z,36.20
2018-04-20T14:43:04.517Z,36.00
2018-04-20T14:45:33.219Z,36.00
2018-04-20T14:48:01.928Z,36.00
2018-04-20T14:50:30.672Z,36.00
2018-04-20T14:52:59.861Z,35.40
2018-04-20T14:55:29.078Z,35.40
2018-04-20T14:57:57.632Z,35.40
2018-04-20T15:00:26.604Z,35.40
2018-04-20T15:02:55.072Z,35.40
2018-04-20T15:05:23.728Z,35.40
2018-04-20T15:07:53.195Z,35.00
2018-04-20T15:10:22.411Z,34.70
2018-04-20T15:12:50.870Z,34.70
2018-04-20T15:15:20.064Z,34.90
2018-04-20T15:17:48.661Z,34.90
2018-04-20T15:20:17.104Z,34.80
2018-04-20T15:22:45.590Z,34.80
2018-04-20T15:25:14.037Z,34.70
2018-04-20T15:27:42.590Z,34.50
2018-04-20T15:30:11.276Z,34.30
2018-04-20T15:32:39.741Z,34.80
2018-04-20T15:35:08.458Z,34.80
2018-04-20T15:37:36.885Z,34.50
2018-04-20T15:40:05.593Z,34.50
2018-04-20T15:42:34.257Z,34.20
2018-04-20T15:45:02.702Z,33.40
2018-04-20T15:47:31.577Z,32.90
2018-04-20T15:50:00.229Z,32.50
2018-04-20T15:52:29.423Z,31.30
2018-04-20T15:54:58.129Z,31.30
2018-04-20T15:57:27.605Z,29.90
2018-04-20T15:59:56.803Z,29.70
2018-04-20T16:02:25.621Z,29.70
2018-04-20T16:04:54.089Z,29.50
2018-04-20T16:07:22.833Z,29.20
2018-04-20T16:09:51.273Z,29.30
2018-04-20T16:12:20.173Z,29.20
2018-04-20T16:14:48.601Z,29.30
2018-04-20T16:17:17.217Z,29.30
2018-04-20T16:19:45.637Z,29.20
2018-04-20T16:22:14.377Z,28.70
2018-04-20T16:24:43.777Z,27.90
2018-04-20T16:27:12.417Z,27.80
2018-04-20T16:29:41.124Z,27.50
2018-04-20T16:32:09.830Z,27.30
2018-04-20T16:34:38.326Z,27.20
2018-04-20T16:37:07.080Z,27.00
2018-04-20T16:39:35.785Z,26.80
2018-04-20T16:42:04.652Z,26.70
2018-04-20T16:44:33.357Z,26.80
2018-04-20T16:47:01.930Z,26.50
2018-04-20T16:49:31.152Z,26.20
2018-04-20T16:52:00.055Z,26.10
2018-04-20T16:54:28.892Z,26.00
2018-04-20T16:56:58.488Z,26.00
2018-04-20T16:59:27.698Z,25.80
2018-04-20T17:01:56.418Z,25.80
2018-04-20T17:04:24.932Z,25.60
2018-04-20T17:06:53.052Z,25.40
2018-04-20T17:09:21.491Z,25.30
2018-04-20T17:11:50.005Z,25.20
2018-04-20T17:14:19.198Z,25.10
2018-04-20T17:16:47.900Z,25.10
2018-04-20T17:19:16.659Z,24.90
2018-04-20T17:21:46.097Z,24.60
2018-04-20T17:24:15.300Z,24.40
2018-04-20T17:26:44.760Z,24.50
2018-04-20T17:29:13.189Z,24.50
2018-04-20T17:31:41.855Z,24.30
2018-04-20T17:34:10.561Z,24.10
2018-04-20T17:36:40.033Z,24.00
2018-04-20T17:39:08.596Z,23.90
2018-04-20T17:41:37.781Z,23.90
2018-04-20T17:44:06.211Z,23.90
2018-04-20T17:46:34.704Z,23.80
2018-04-20T17:49:03.244Z,23.70
2018-04-20T17:51:32.437Z,23.60
2018-04-20T17:54:01.639Z,23.60
2018-04-20T17:56:31.216Z,23.40
2018-04-20T17:58:59.688Z,23.40
2018-04-20T18:01:28.139Z,23.40
2018-04-20T18:03:56.600Z,23.20
2018-04-20T18:06:25.035Z,23.10
2018-04-20T18:08:54.250Z,22.90
2018-04-20T18:11:23.451Z,22.80
2018-04-20T18:13:52.012Z,22.80
2018-04-20T18:16:20.385Z,22.70
2018-04-20T18:18:49.617Z,22.40
2018-04-20T18:21:18.053Z,22.40
2018-04-20T18:23:46.489Z,22.20
2018-04-20T18:26:14.925Z,22.10
2018-04-20T18:28:43.667Z,22.00
2018-04-20T18:31:12.109Z,21.90
2018-04-20T18:33:41.313Z,21.90
2018-04-20T18:36:10.697Z,21.90
2018-04-20T18:38:39.313Z,21.80
2018-04-20T18:41:07.740Z,21.80
2018-04-20T18:43:36.448Z,21.80
2018-04-20T18:46:04.813Z,21.60
2018-04-20T18:48:33.252Z,21.50
2018-04-20T18:51:01.814Z,21.40
2018-04-20T18:53:30.242Z,21.30
2018-04-20T18:55:59.020Z,21.10
2018-04-20T18:58:28.255Z,20.90
2018-04-20T19:00:56.723Z,20.80
2018-04-20T19:03:25.168Z,20.70
2018-04-20T19:05:53.621Z,20.60
2018-04-20T19:08:22.384Z,20.50
2018-04-20T19:10:50.997Z,20.50
2018-04-20T19:13:19.441Z,20.30
2018-04-20T19:15:48.650Z,20.20
2018-04-20T19:18:17.841Z,20.10
2018-04-20T19:20:46.374Z,20.00
2018-04-20T19:23:15.248Z,20.00
2018-04-20T19:25:43.678Z,19.80
2018-04-20T19:28:12.180Z,19.70
2018-04-20T19:30:40.616Z,19.70
2018-04-20T19:33:09.049Z,19.60
2018-04-20T19:35:37.488Z,19.60
2018-04-20T19:38:06.210Z,19.50
2018-04-20T19:40:34.832Z,19.30
2018-04-20T19:43:03.264Z,19.10
2018-04-20T19:45:31.956Z,19.00
2018-04-20T19:48:00.428Z,19.10
2018-04-20T19:50:29.655Z,18.80
2018-04-20T19:52:58.106Z,18.80
2018-04-20T19:55:27.309Z,18.60
2018-04-20T19:57:55.748Z,18.60
2018-04-20T20:00:24.474Z,18.60
2018-04-20T20:02:52.957Z,18.50
2018-04-20T20:05:21.414Z,18.60
2018-04-20T20:07:50.120Z,18.50
2018-04-20T20:10:18.813Z,18.50
2018-04-20T20:12:47.299Z,18.50
2018-04-20T20:15:15.868Z,18.40
2018-04-20T20:17:44.305Z,18.20
2018-04-20T20:20:12.564Z,18.20
2018-04-20T20:22:41.276Z,18.10
2018-04-20T20:25:10.136Z,18.00
2018-04-20T20:27:38.989Z,17.90
2018-04-20T20:30:07.586Z,17.80
2018-04-20T20:32:36.031Z,17.80
2018-04-20T20:35:05.229Z,17.50
2018-04-20T20:37:33.938Z,17.50
2018-04-20T20:40:02.581Z,17.50
2018-04-20T20:42:31.300Z,17.50
2018-04-20T20:44:59.996Z,17.30
2018-04-20T20:47:28.543Z,17.30
2018-04-20T20:49:57.014Z,17.10
2018-04-20T20:52:25.890Z,17.10
2018-04-20T20:54:54.327Z,17.10
2018-04-20T20:57:22.869Z,17.10
2018-04-20T20:59:51.329Z,17.00
2018-04-20T21:02:20.566Z,16.90
2018-04-20T21:04:48.997Z,16.80
2018-04-20T21:07:17.711Z,16.80
2018-04-20T21:09:46.294Z,16.80
2018-04-20T21:12:14.870Z,16.80
2018-04-20T21:14:43.583Z,16.70
2018-04-20T21:17:12.024Z,16.60
2018-04-20T21:19:41.562Z,16.40
2018-04-20T21:22:10.040Z,16.40
2018-04-20T21:24:39.271Z,16.30
2018-04-20T21:27:08.957Z,16.30
2018-04-20T21:29:37.391Z,16.30
2018-04-20T21:32:06.827Z,16.20
2018-04-20T21:34:35.321Z,16.20
2018-04-20T21:37:03.889Z,16.00
2018-04-20T21:39:33.365Z,16.00
2018-04-20T21:42:02.893Z,16.00
2018-04-20T21:44:32.192Z,15.90
2018-04-20T21:47:01.381Z,15.80
2018-04-20T21:49:30.079Z,15.80
2018-04-20T21:51:58.787Z,15.70
2018-04-20T21:54:27.444Z,15.60
2018-04-20T21:56:56.661Z,15.60
2018-04-20T21:59:25.097Z,15.50
2018-04-20T22:01:53.528Z,15.50
2018-04-20T22:04:23.013Z,15.40
2018-04-20T22:06:51.721Z,15.40
2018-04-20T22:09:21.321Z,15.30
2018-04-20T22:11:49.749Z,15.30
2018-04-20T22:14:17.959Z,15.20
2018-04-20T22:16:47.349Z,15.10
2018-04-20T22:19:16.536Z,15.00
2018-04-20T22:21:45.229Z,15.00
2018-04-20T22:24:13.934Z,15.10
2018-04-20T22:26:42.425Z,15.10
2018-04-20T22:29:11.901Z,15.00
2018-04-20T22:31:40.401Z,15.00
2018-04-20T22:34:08.833Z,14.90
2018-04-20T22:36:37.541Z,14.90
2018-04-20T22:39:06.469Z,14.90
2018-04-20T22:41:34.906Z,14.80
2018-04-20T22:44:04.105Z,14.70
2018-04-20T22:46:32.801Z,14.70
2018-04-20T22:49:01.399Z,14.60
2018-04-20T22:51:30.867Z,14.60
2018-04-20T22:54:00.069Z,14.70
2018-04-20T22:56:29.483Z,14.60
2018-04-20T22:58:58.689Z,14.50
2018-04-20T23:01:27.116Z,14.50
2018-04-20T23:03:55.549Z,14.50
2018-04-20T23:06:24.827Z,14.50
2018-04-20T23:08:54.330Z,14.40
2018-04-20T23:11:23.537Z,14.30
2018-04-20T23:13:52.725Z,14.30
2018-04-20T23:16:21.929Z,14.20
2018-04-20T23:18:51.153Z,14.30
2018-04-20T23:21:19.569Z,14.30
2018-04-20T23:23:48.269Z,14.20
2018-04-20T23:26:16.973Z,14.10
2018-04-20T23:28:46.168Z,14.00
2018-04-20T23:31:14.901Z,13.90
2018-04-20T23:33:43.516Z,13.80
2018-04-20T23:36:12.283Z,13.70
2018-04-20T23:38:41.646Z,13.80
2018-04-20T23:41:10.086Z,13.80
2018-04-20T23:43:38.533Z,13.90
2018-04-20T23:46:07.184Z,13.80
2018-04-20T23:48:35.625Z,13.70
2018-04-20T23:51:04.141Z,13.70
2018-04-20T23:53:32.715Z,13.50
2018-04-20T23:56:00.856Z,13.50
2018-04-20T23:58:29.548Z,13.50
